Time;durP1;ratioP1;P1;durP2;ratioP2;P2;SDS_P1;SDS_P2;PMS_P1;PMS_P2;Temp;Humidity;BMP_temperature;BMP_pressure;BME280_temperature;BME280_humidity;BME280_pressure;Samples;Min_cycle;Max_cycle;Signal;HPM_P1;HPM_P2
2021/12/26 00:00:56;;;;;;;6.90;2.70;;;-3.60;8.20;;;;;;5011250;28;20462;-58
2021/12/26 00:03:25;;;;;;;4.60;2.43;;;-3.60;1.00;;;;;;5011432;28;20445;-59
2021/12/26 00:05:53;;;;;;;3.97;2.20;;;-3.50;1.00;;;;;;5010698;28;20840;-57
2021/12/26 00:08:21;;;;;;;4.90;2.50;;;-3.50;1.00;;;;;;5011548;28;20478;-58
2021/12/26 00:10:48;;;;;;;3.37;2.40;;;-3.40;1.00;;;;;;5010650;28;20515;-53
2021/12/26 00:13:16;;;;;;;3.93;2.50;;;-3.40;1.00;;;;;;5010948;28;20536;-55
2021/12/26 00:15:42;;;;;;;4.83;2.27;;;-3.50;1.00;;;;;;5011444;28;20804;-54
2021/12/26 00:18:10;;;;;;;4.07;3.00;;;-3.50;1.00;;;;;;5012335;28;20474;-57
2021/12/26 00:20:39;;;;;;;3.37;2.40;;;-3.40;1.00;;;;;;5011810;28;20544;-57
2021/12/26 00:23:07;;;;;;;6.07;2.87;;;-3.40;1.00;;;;;;5015203;28;20571;-60
2021/12/26 00:25:35;;;;;;;5.23;2.47;;;-3.30;1.00;;;;;;5015674;28;20451;-56
2021/12/26 00:28:02;;;;;;;4.43;2.40;;;-3.30;1.00;;;;;;5015065;28;20488;-55
2021/12/26 00:30:29;;;;;;;3.53;2.30;;;-3.30;1.00;;;;;;5015143;28;20504;-55
2021/12/26 00:32:55;;;;;;;3.20;2.27;;;-3.20;1.00;;;;;;5016354;28;20486;-62
2021/12/26 00:35:24;;;;;;;5.27;2.27;;;-3.20;1.00;;;;;;5017289;28;20448;-58
2021/12/26 00:37:52;;;;;;;2.80;2.43;;;-3.20;1.00;;;;;;5015310;28;20476;-56
2021/12/26 00:40:21;;;;;;;6.83;3.20;;;-3.10;22.30;;;;;;5014785;28;20466;-52
2021/12/26 00:42:49;;;;;;;5.00;3.03;;;-3.20;1.00;;;;;;5014614;28;20458;-59
2021/12/26 00:45:16;;;;;;;4.27;2.40;;;-3.10;1.00;;;;;;5015024;28;20575;-55
2021/12/26 00:47:44;;;;;;;4.77;2.80;;;-3.10;1.00;;;;;;5013807;28;20467;-56
2021/12/26 00:50:14;;;;;;;6.37;2.77;;;-3.20;57.20;;;;;;5014844;28;20450;-57
2021/12/26 00:52:41;;;;;;;5.13;2.40;;;-3.20;1.00;;;;;;5014261;28;21019;-57
2021/12/26 00:55:13;;;;;;;4.50;2.73;;;-3.20;31.30;;;;;;5014300;28;20455;-56
2021/12/26 00:57:40;;;;;;;3.33;2.10;;;-3.10;99.90;;;;;;5014204;28;20467;-60
2021/12/26 01:00:09;;;;;;;5.37;3.17;;;-3.10;1.00;;;;;;5014421;28;20446;-59
2021/12/26 01:02:36;;;;;;;3.20;2.67;;;-3.00;1.00;;;;;;5014377;28;20453;-55
2021/12/26 01:05:06;;;;;;;5.00;2.60;;;-3.00;1.00;;;;;;5014359;28;20452;-58
2021/12/26 01:07:43;;;;;;;5.83;3.03;;;-3.00;1.00;;;;;;5013696;28;20523;-58
2021/12/26 01:10:11;;;;;;;2.67;2.00;;;-3.10;23.50;;;;;;5014466;28;20454;-60
2021/12/26 01:12:40;;;;;;;6.03;2.30;;;-3.00;1.00;;;;;;5014260;28;20494;-58
2021/12/26 01:15:10;;;;;;;3.47;2.63;;;-3.00;94.10;;;;;;5014229;28;20453;-58
2021/12/26 01:17:39;;;;;;;5.07;2.80;;;-3.00;68.00;;;;;;5013618;28;20531;-56
2021/12/26 01:20:09;;;;;;;3.43;2.73;;;-3.00;64.20;;;;;;5013624;28;20463;-55
2021/12/26 01:22:37;;;;;;;3.77;2.63;;;-3.00;99.90;;;;;;5014042;28;20961;-60
2021/12/26 01:25:05;;;;;;;4.60;2.30;;;-3.00;99.90;;;;;;5014526;28;20463;-59
2021/12/26 01:27:34;;;;;;;4.43;2.70;;;-3.00;99.90;;;;;;5014346;28;20844;-55
2021/12/26 01:30:00;;;;;;;4.03;2.20;;;-3.00;99.90;;;;;;5013857;28;20461;-53
2021/12/26 01:32:27;;;;;;;3.90;2.60;;;-3.00;99.90;;;;;;5013390;28;20562;-54
2021/12/26 01:34:54;;;;;;;4.93;2.70;;;-2.90;99.90;;;;;;5013708;28;20453;-57
2021/12/26 01:37:21;;;;;;;4.93;2.70;;;-2.90;99.90;;;;;;5012653;28;20523;-56
2021/12/26 01:39:48;;;;;;;5.87;2.87;;;-2.90;99.90;;;;;;5013605;28;20452;-60
2021/12/26 01:42:15;;;;;;;5.03;3.10;;;-2.90;99.90;;;;;;5013191;28;20448;-56
2021/12/26 01:44:43;;;;;;;6.43;2.73;;;-2.90;99.90;;;;;;5013315;28;20464;-59
2021/12/26 01:47:10;;;;;;;4.37;2.80;;;-2.80;99.90;;;;;;5013574;28;20495;-58
2021/12/26 01:49:37;;;;;;;3.40;2.60;;;-2.80;99.90;;;;;;5014028;28;20528;-57
2021/12/26 01:52:07;;;;;;;4.47;2.97;;;-2.80;99.90;;;;;;5014062;28;20535;-55
2021/12/26 01:54:39;;;;;;;4.97;2.80;;;-2.80;99.90;;;;;;5013464;28;20508;-59
2021/12/26 01:57:10;;;;;;;4.43;2.60;;;-2.80;99.90;;;;;;5013443;28;20465;-60
2021/12/26 01:59:37;;;;;;;3.47;2.43;;;-2.90;99.90;;;;;;5013229;28;20501;-57
2021/12/26 02:02:05;;;;;;;5.10;2.63;;;-2.80;99.90;;;;;;5013461;28;20863;-61
2021/12/26 02:04:33;;;;;;;4.37;2.50;;;-2.80;99.90;;;;;;5013850;28;20452;-61
2021/12/26 02:07:02;;;;;;;4.57;2.90;;;-2.80;99.90;;;;;;5013272;28;20460;-56
2021/12/26 02:09:29;;;;;;;3.83;2.67;;;-2.80;99.90;;;;;;5013330;28;20447;-58
2021/12/26 02:11:56;;;;;;;5.17;2.87;;;-2.90;99.90;;;;;;5012892;28;20450;-62
2021/12/26 02:14:24;;;;;;;5.87;2.70;;;-2.90;99.90;;;;;;5013229;28;20465;-59
2021/12/26 02:16:50;;;;;;;2.93;2.23;;;-2.90;99.90;;;;;;5012509;28;20504;-60
2021/12/26 02:19:18;;;;;;;4.00;2.30;;;-2.90;99.90;;;;;;5012531;28;20460;-59
2021/12/26 02:22:01;;;;;;;4.20;2.67;;;-2.90;99.90;;;;;;5012533;28;20870;-60
2021/12/26 02:24:33;;;;;;;4.57;3.03;;;-3.00;99.90;;;;;;5012921;28;20480;-58
2021/12/26 02:29:45;;;;;;;3.50;2.83;;;-3.00;99.90;;;;;;5013182;28;20551;-57
2021/12/26 02:32:11;;;;;;;5.07;2.53;;;-3.00;99.90;;;;;;5012729;28;21020;-61
2021/12/26 02:34:39;;;;;;;5.37;2.60;;;-3.00;99.90;;;;;;5012339;28;20452;-61
2021/12/26 02:37:07;;;;;;;3.77;3.00;;;-3.00;99.90;;;;;;5012434;28;20447;-60
2021/12/26 02:39:35;;;;;;;4.17;2.60;;;-3.00;99.90;;;;;;5012595;28;20468;-58
2021/12/26 02:42:02;;;;;;;4.03;2.77;;;-3.00;99.90;;;;;;5012782;28;20455;-55
2021/12/26 02:44:29;;;;;;;4.70;3.00;;;-3.00;99.90;;;;;;5012525;28;20446;-57
2021/12/26 02:46:56;;;;;;;3.57;2.50;;;-3.00;99.90;;;;;;5012172;28;20451;-56
2021/12/26 02:49:23;;;;;;;3.63;2.50;;;-3.00;99.90;;;;;;5012760;28;20962;-58
2021/12/26 02:51:51;;;;;;;4.93;2.83;;;-3.00;93.30;;;;;;5012949;28;20527;-58
2021/12/26 02:54:19;;;;;;;4.60;2.47;;;-3.00;99.90;;;;;;5013173;28;20487;-59
2021/12/26 02:56:46;;;;;;;3.20;2.50;;;-3.00;99.90;;;;;;5012887;28;20834;-59
2021/12/26 02:59:13;;;;;;;4.63;2.43;;;-3.00;99.90;;;;;;5013909;28;20489;-61
2021/12/26 03:01:40;;;;;;;4.67;2.30;;;-3.00;99.90;;;;;;5012885;28;20504;-56
2021/12/26 03:04:08;;;;;;;4.67;2.67;;;-3.10;99.90;;;;;;5012699;28;20455;-57
2021/12/26 03:06:42;;;;;;;4.90;2.43;;;-3.10;99.90;;;;;;5012825;28;20591;-58
2021/12/26 03:09:09;;;;;;;4.43;2.90;;;-3.10;99.90;;;;;;5012931;28;20478;-57
2021/12/26 03:11:38;;;;;;;3.57;2.70;;;-3.10;99.90;;;;;;5012806;28;20450;-59
2021/12/26 03:14:05;;;;;;;7.60;2.87;;;-3.10;99.90;;;;;;5012717;28;20533;-57
2021/12/26 03:16:32;;;;;;;3.23;1.70;;;-3.10;99.90;;;;;;5012339;28;20452;-60
2021/12/26 03:19:00;;;;;;;7.00;2.40;;;-3.10;88.90;;;;;;5011954;28;20471;-58
2021/12/26 03:21:27;;;;;;;4.43;3.00;;;-3.10;99.90;;;;;;5012626;28;21021;-58
2021/12/26 03:23:54;;;;;;;4.67;2.73;;;-3.10;99.90;;;;;;5012576;28;20443;-59
2021/12/26 03:26:21;;;;;;;9.87;3.30;;;-3.10;99.90;;;;;;5012545;28;20454;-58
2021/12/26 03:28:49;;;;;;;6.63;2.50;;;-3.00;99.90;;;;;;5012424;28;20480;-60
2021/12/26 03:31:15;;;;;;;4.30;2.33;;;-3.00;99.90;;;;;;5012423;28;20451;-61
2021/12/26 03:33:42;;;;;;;4.73;3.17;;;-3.00;99.90;;;;;;5012604;28;20485;-60
2021/12/26 03:36:09;;;;;;;3.20;2.47;;;-3.10;99.90;;;;;;5012266;28;20455;-55
2021/12/26 03:38:37;;;;;;;3.63;2.40;;;-3.10;1.00;;;;;;5012352;28;20996;-61
2021/12/26 03:41:04;;;;;;;3.33;2.13;;;-3.10;23.40;;;;;;5012449;28;20548;-59
2021/12/26 03:43:30;;;;;;;4.60;3.10;;;-3.10;56.20;;;;;;5012892;28;20985;-60
2021/12/26 03:45:59;;;;;;;3.93;2.60;;;-3.20;1.00;;;;;;5012466;28;20459;-59
2021/12/26 03:48:28;;;;;;;3.93;2.53;;;-3.20;1.00;;;;;;5012557;28;21071;-56
2021/12/26 03:50:57;;;;;;;3.60;2.50;;;-3.20;1.00;;;;;;5012220;28;20447;-54
2021/12/26 03:53:24;;;;;;;3.47;2.40;;;-3.20;1.00;;;;;;5013311;28;20494;-60
2021/12/26 03:55:51;;;;;;;3.17;2.37;;;-3.30;1.00;;;;;;5013882;28;20459;-57
2021/12/26 03:58:19;;;;;;;2.43;2.03;;;-3.30;1.00;;;;;;5012780;28;20473;-59
2021/12/26 04:00:47;;;;;;;3.13;2.03;;;-3.30;1.00;;;;;;5012101;28;20512;-55
2021/12/26 04:03:15;;;;;;;6.40;2.57;;;-3.30;1.00;;;;;;5012169;28;20867;-57
2021/12/26 04:05:42;;;;;;;4.40;2.67;;;-3.30;1.00;;;;;;5012183;28;20583;-56
2021/12/26 04:08:09;;;;;;;3.27;2.73;;;-3.30;1.00;;;;;;5011742;28;20474;-55
2021/12/26 04:10:35;;;;;;;2.67;2.07;;;-3.30;1.00;;;;;;5011951;28;20464;-55
2021/12/26 04:13:02;;;;;;;3.17;2.17;;;-3.30;1.00;;;;;;5011624;28;20497;-59
2021/12/26 04:15:29;;;;;;;3.80;2.03;;;-3.20;1.00;;;;;;5011943;28;20455;-61
2021/12/26 04:17:57;;;;;;;4.23;2.67;;;-3.20;1.00;;;;;;5011711;28;20472;-54
2021/12/26 04:20:26;;;;;;;4.70;2.57;;;-3.30;1.00;;;;;;5012083;28;20459;-59
2021/12/26 04:22:53;;;;;;;2.63;1.90;;;-3.30;1.00;;;;;;5011549;28;20447;-56
2021/12/26 04:25:21;;;;;;;3.80;2.27;;;-3.30;1.00;;;;;;5011804;28;20451;-57
2021/12/26 04:27:48;;;;;;;4.37;3.17;;;-3.20;10.20;;;;;;5011627;28;20474;-61
2021/12/26 04:30:17;;;;;;;4.47;2.60;;;-3.20;1.00;;;;;;5011808;28;20458;-59
2021/12/26 04:32:44;;;;;;;5.83;2.70;;;-3.20;3.90;;;;;;5011686;28;20451;-59
2021/12/26 04:35:11;;;;;;;5.10;2.60;;;-3.20;1.00;;;;;;5012249;28;20445;-58
2021/12/26 04:37:39;;;;;;;4.07;2.63;;;-3.10;1.00;;;;;;5011414;28;20493;-59
2021/12/26 04:40:10;;;;;;;3.60;2.30;;;-3.00;1.00;;;;;;5011515;28;20502;-59
2021/12/26 04:42:39;;;;;;;5.30;2.30;;;-3.10;1.00;;;;;;5011939;28;20481;-55
2021/12/26 04:45:08;;;;;;;5.43;2.67;;;-3.10;1.00;;;;;;5011598;28;20461;-58
2021/12/26 04:47:36;;;;;;;2.20;2.00;;;-3.10;1.00;;;;;;5011538;28;20573;-60
2021/12/26 04:50:12;;;;;;;3.87;2.50;;;-3.10;1.00;;;;;;5012698;28;20458;-59
2021/12/26 04:52:43;;;;;;;5.87;2.87;;;-3.10;1.00;;;;;;5011602;28;20518;-55
2021/12/26 04:55:11;;;;;;;3.53;2.10;;;-3.10;1.00;;;;;;5011635;28;20459;-60
2021/12/26 04:57:37;;;;;;;3.03;2.07;;;-3.10;1.00;;;;;;5011418;28;20471;-61
2021/12/26 05:00:05;;;;;;;3.17;2.10;;;-3.10;1.00;;;;;;5011190;28;20820;-56
2021/12/26 05:02:35;;;;;;;4.20;2.70;;;-3.10;1.00;;;;;;5011526;28;20495;-60
2021/12/26 05:05:02;;;;;;;2.80;2.03;;;-3.10;1.00;;;;;;5011375;28;20446;-61
2021/12/26 05:07:29;;;;;;;4.73;2.57;;;-3.10;1.00;;;;;;5011525;28;20472;-56
2021/12/26 05:09:58;;;;;;;7.00;1.93;;;-3.10;1.00;;;;;;5011389;28;20448;-57
2021/12/26 05:12:25;;;;;;;3.17;2.20;;;-3.10;1.00;;;;;;5014084;28;20450;-56
2021/12/26 05:14:51;;;;;;;3.07;2.10;;;-3.10;1.00;;;;;;5014883;28;20488;-59
2021/12/26 05:17:18;;;;;;;3.63;2.50;;;-3.00;1.00;;;;;;5014493;28;20468;-60
2021/12/26 05:19:45;;;;;;;4.23;2.27;;;-3.00;1.00;;;;;;5014957;28;20508;-58
2021/12/26 05:22:12;;;;;;;3.10;2.30;;;-2.80;1.00;;;;;;5014696;28;20448;-59
2021/12/26 05:24:39;;;;;;;3.60;2.30;;;-2.80;1.00;;;;;;5014967;28;20450;-57
2021/12/26 05:27:07;;;;;;;6.63;2.80;;;-2.70;1.00;;;;;;5014223;28;20456;-58
2021/12/26 05:29:34;;;;;;;3.97;2.67;;;-2.80;1.00;;;;;;5014513;28;21010;-59
2021/12/26 05:32:00;;;;;;;4.73;2.40;;;-2.90;99.90;;;;;;5014295;28;20820;-59
2021/12/26 05:34:27;;;;;;;4.20;2.37;;;-2.90;1.00;;;;;;5014774;28;20501;-59
2021/12/26 05:36:54;;;;;;;3.70;2.47;;;-2.90;1.00;;;;;;5014299;28;20452;-60
2021/12/26 05:39:20;;;;;;;3.20;2.37;;;-2.90;1.00;;;;;;5014459;28;20541;-57
2021/12/26 05:41:47;;;;;;;3.53;2.60;;;-2.90;1.00;;;;;;5014384;28;20450;-62
2021/12/26 05:44:15;;;;;;;3.60;2.10;;;-3.00;1.00;;;;;;5014484;28;20448;-60
2021/12/26 05:46:42;;;;;;;3.33;2.60;;;-3.00;1.00;;;;;;5014146;28;20451;-59
2021/12/26 05:49:09;;;;;;;3.83;2.30;;;-3.00;1.00;;;;;;5014355;28;20569;-58
2021/12/26 05:51:36;;;;;;;2.70;1.77;;;-3.00;1.00;;;;;;5014617;28;20459;-59
2021/12/26 05:54:03;;;;;;;2.60;2.20;;;-3.00;1.00;;;;;;5014204;28;20481;-60
2021/12/26 05:56:29;;;;;;;3.37;2.30;;;-2.90;1.00;;;;;;5014104;28;20451;-57
2021/12/26 05:58:56;;;;;;;4.70;2.30;;;-2.90;1.00;;;;;;5014023;28;20474;-57
2021/12/26 06:01:24;;;;;;;4.87;3.07;;;-2.80;1.00;;;;;;5014014;28;20512;-58
2021/12/26 06:03:51;;;;;;;3.50;2.67;;;-2.70;22.30;;;;;;5014944;28;20866;-57
2021/12/26 06:06:17;;;;;;;4.87;2.40;;;-2.70;1.00;;;;;;5015531;28;20855;-59
2021/12/26 06:08:44;;;;;;;4.33;2.47;;;-2.70;99.90;;;;;;5014700;28;20474;-57
2021/12/26 06:11:11;;;;;;;3.10;2.30;;;-2.70;99.90;;;;;;5014240;28;20453;-58
2021/12/26 06:13:37;;;;;;;4.33;2.77;;;-2.60;99.90;;;;;;5013483;28;20491;-57
2021/12/26 06:16:05;;;;;;;3.53;2.27;;;-2.60;99.90;;;;;;5013971;28;20444;-55
2021/12/26 06:18:33;;;;;;;3.30;2.20;;;-2.60;99.90;;;;;;5013783;28;20531;-58
2021/12/26 06:20:59;;;;;;;5.07;3.00;;;-2.60;99.90;;;;;;5013624;28;20508;-59
2021/12/26 06:23:26;;;;;;;6.40;2.87;;;-2.50;99.90;;;;;;5013305;28;20451;-55
2021/12/26 06:25:53;;;;;;;3.23;2.20;;;-2.50;99.90;;;;;;5013317;28;20454;-60
2021/12/26 06:28:19;;;;;;;5.20;2.87;;;-2.50;94.20;;;;;;5013410;28;20478;-57
2021/12/26 06:30:46;;;;;;;3.93;2.30;;;-2.50;99.90;;;;;;5013246;28;20461;-56
2021/12/26 06:33:13;;;;;;;7.20;3.00;;;-2.50;99.90;;;;;;5013541;28;20510;-54
2021/12/26 06:35:41;;;;;;;4.80;2.77;;;-2.60;99.90;;;;;;5013259;28;20516;-55
2021/12/26 06:38:08;;;;;;;6.03;2.70;;;-2.50;99.90;;;;;;5013130;28;20848;-53
2021/12/26 06:40:35;;;;;;;4.60;2.80;;;-2.50;99.90;;;;;;5013097;28;20457;-56
2021/12/26 06:43:02;;;;;;;3.70;2.30;;;-2.40;99.90;;;;;;5013107;28;20457;-58
2021/12/26 06:45:28;;;;;;;5.03;2.40;;;-2.30;99.90;;;;;;5013143;28;20455;-58
2021/12/26 06:47:57;;;;;;;3.67;2.33;;;-2.30;99.90;;;;;;5012927;28;21015;-57
2021/12/26 06:50:24;;;;;;;4.57;2.60;;;-2.30;99.90;;;;;;5013281;28;20453;-55
2021/12/26 06:52:52;;;;;;;6.23;2.80;;;-2.30;99.90;;;;;;5012772;28;20442;-58
2021/12/26 06:55:18;;;;;;;4.30;2.80;;;-2.30;99.90;;;;;;5012767;28;21038;-59
2021/12/26 06:57:45;;;;;;;3.77;2.50;;;-2.30;99.90;;;;;;5014390;28;20473;-56
2021/12/26 07:00:15;;;;;;;4.90;2.70;;;-2.20;99.90;;;;;;5015360;28;20456;-58
2021/12/26 07:02:42;;;;;;;4.17;2.27;;;-2.20;1.00;;;;;;5015003;28;20472;-57
2021/12/26 07:05:12;;;;;;;3.33;2.67;;;-2.20;1.00;;;;;;5013583;28;20497;-58
2021/12/26 07:07:39;;;;;;;5.53;2.73;;;-2.20;1.00;;;;;;5012667;28;20470;-54
2021/12/26 07:10:09;;;;;;;4.40;3.10;;;-2.20;1.00;;;;;;5012592;28;20450;-56
2021/12/26 07:12:35;;;;;;;7.27;2.93;;;-2.20;99.90;;;;;;5012914;28;20450;-57
2021/12/26 07:15:02;;;;;;;4.13;2.87;;;-2.20;1.00;;;;;;5013778;28;20485;-58
2021/12/26 07:17:29;;;;;;;4.23;2.63;;;-2.20;1.00;;;;;;5015307;28;20470;-59
2021/12/26 07:19:56;;;;;;;3.73;2.50;;;-2.20;1.00;;;;;;5015434;28;20956;-58
2021/12/26 07:22:23;;;;;;;5.17;3.07;;;-2.30;1.00;;;;;;5013036;28;20454;-61
2021/12/26 07:24:50;;;;;;;5.17;2.93;;;-2.20;1.00;;;;;;5012875;28;20445;-61
2021/12/26 07:27:18;;;;;;;3.67;2.60;;;-2.10;1.00;;;;;;5012584;28;20477;-58
2021/12/26 07:29:45;;;;;;;3.53;2.30;;;-2.10;1.00;;;;;;5012434;28;20504;-59
2021/12/26 07:32:12;;;;;;;5.13;3.00;;;-2.10;1.00;;;;;;5012492;28;20452;-59
2021/12/26 07:34:40;;;;;;;5.40;2.90;;;-2.00;1.00;;;;;;5011300;28;20481;-59
2021/12/26 07:37:07;;;;;;;3.63;2.57;;;-2.00;1.00;;;;;;5012366;28;20815;-58
2021/12/26 07:39:34;;;;;;;4.77;2.63;;;-2.00;1.00;;;;;;5012289;28;20544;-59
2021/12/26 07:42:01;;;;;;;4.67;3.07;;;-2.10;1.00;;;;;;5012704;28;20457;-60
2021/12/26 07:44:29;;;;;;;4.33;2.80;;;-2.10;1.00;;;;;;5012611;28;20469;-60
2021/12/26 07:46:56;;;;;;;5.17;2.50;;;-2.10;1.00;;;;;;5012666;28;20450;-59
2021/12/26 07:49:24;;;;;;;4.97;3.10;;;-2.10;1.00;;;;;;5011906;28;20457;-60
2021/12/26 07:51:51;;;;;;;4.80;2.97;;;-2.10;58.30;;;;;;5012130;28;20447;-59
2021/12/26 07:54:20;;;;;;;4.90;3.10;;;-2.10;1.00;;;;;;5012134;28;20484;-62
2021/12/26 07:56:47;;;;;;;5.70;3.17;;;-2.10;1.00;;;;;;5012490;28;20458;-61
2021/12/26 07:59:13;;;;;;;4.07;2.47;;;-2.10;1.00;;;;;;5012573;28;21170;-58
2021/12/26 08:01:41;;;;;;;4.57;2.63;;;-2.10;1.00;;;;;;5012203;28;20872;-60
2021/12/26 08:04:09;;;;;;;4.60;2.80;;;-2.10;1.00;;;;;;5012056;28;20442;-58
2021/12/26 08:06:36;;;;;;;4.93;2.50;;;-2.10;1.00;;;;;;5011940;28;20454;-61
2021/12/26 08:09:03;;;;;;;3.50;2.60;;;-2.10;1.00;;;;;;5012139;28;20526;-56
2021/12/26 08:11:30;;;;;;;6.40;2.63;;;-2.10;1.00;;;;;;5011791;28;20944;-58
2021/12/26 08:13:57;;;;;;;4.87;3.10;;;-2.10;99.90;;;;;;5012079;28;20508;-57
2021/12/26 08:16:23;;;;;;;4.50;3.07;;;-2.10;1.00;;;;;;5011559;28;20454;-56
2021/12/26 08:18:51;;;;;;;5.53;3.90;;;-2.10;1.00;;;;;;5011881;28;20482;-59
2021/12/26 08:21:18;;;;;;;9.30;4.23;;;-2.10;1.00;;;;;;5011665;28;21035;-60
2021/12/26 08:23:45;;;;;;;4.63;2.90;;;-2.00;1.00;;;;;;5005846;28;20462;-59
2021/12/26 08:26:12;;;;;;;3.87;2.77;;;-2.00;1.00;;;;;;5011336;28;20452;-59
2021/12/26 08:28:39;;;;;;;4.90;3.27;;;-2.00;97.80;;;;;;5011498;28;20476;-58
2021/12/26 08:31:07;;;;;;;5.13;3.00;;;-1.90;1.00;;;;;;5011361;28;20959;-68
2021/12/26 08:33:34;;;;;;;4.97;3.43;;;-1.80;1.00;;;;;;5011180;28;20948;-67
2021/12/26 08:36:02;;;;;;;5.77;3.60;;;-1.70;99.90;;;;;;5011379;28;20473;-58
2021/12/26 08:38:29;;;;;;;4.20;3.10;;;-1.30;99.90;;;;;;5011142;28;20481;-54
2021/12/26 08:40:57;;;;;;;7.20;3.37;;;-1.30;1.00;;;;;;5011462;28;20450;-56
2021/12/26 08:43:24;;;;;;;5.27;3.57;;;-1.40;26.80;;;;;;5010931;28;20821;-59
2021/12/26 08:45:51;;;;;;;5.43;2.93;;;-1.30;1.00;;;;;;5013486;28;20478;-58
2021/12/26 08:48:18;;;;;;;6.70;3.97;;;-1.40;37.80;;;;;;5015288;28;20473;-58
2021/12/26 08:50:45;;;;;;;5.63;3.00;;;-1.50;90.10;;;;;;5015046;28;20454;-61
2021/12/26 08:53:14;;;;;;;4.30;2.90;;;-1.50;99.90;;;;;;5014756;28;20971;-57
2021/12/26 08:55:41;;;;;;;5.23;3.57;;;-1.50;39.60;;;;;;5014746;28;20482;-64
2021/12/26 08:58:07;;;;;;;5.80;3.30;;;-1.50;73.60;;;;;;5014767;28;20469;-60
2021/12/26 09:00:35;;;;;;;6.67;3.53;;;-1.40;99.90;;;;;;5014661;28;20453;-62
2021/12/26 09:03:02;;;;;;;5.37;3.67;;;-1.30;99.90;;;;;;5014316;28;20449;-63
2021/12/26 09:05:29;;;;;;;5.57;3.07;;;-1.30;49.00;;;;;;5014261;28;20450;-62
2021/12/26 09:07:56;;;;;;;5.80;3.43;;;-1.30;99.90;;;;;;5030475;28;20553;-59
2021/12/26 09:10:24;;;;;;;8.03;3.80;;;-1.30;99.90;;;;;;5034958;28;20507;-61
2021/12/26 09:12:51;;;;;;;6.27;3.73;;;-1.20;99.90;;;;;;5033807;28;20963;-60
2021/12/26 09:15:18;;;;;;;5.13;3.87;;;-1.10;99.90;;;;;;5034018;28;20542;-63
2021/12/26 09:17:45;;;;;;;6.40;3.37;;;-1.10;99.90;;;;;;5030713;28;20849;-63
2021/12/26 09:20:12;;;;;;;7.53;4.13;;;-1.10;99.90;;;;;;5014204;28;20823;-63
2021/12/26 09:22:42;;;;;;;4.87;4.20;;;-1.10;99.90;;;;;;5025600;28;20444;-64
2021/12/26 09:25:11;;;;;;;4.80;3.37;;;-1.00;99.90;;;;;;5034461;28;20936;-64
2021/12/26 09:27:39;;;;;;;7.27;4.43;;;-1.00;99.90;;;;;;5034335;28;20477;-64
2021/12/26 09:30:07;;;;;;;10.47;3.50;;;-1.10;99.90;;;;;;4994646;28;20451;-65
2021/12/26 09:32:34;;;;;;;6.90;3.53;;;-1.00;99.90;;;;;;4995145;28;20462;-65
2021/12/26 09:35:01;;;;;;;9.00;4.73;;;-1.00;99.90;;;;;;4994642;28;20529;-71
2021/12/26 09:37:28;;;;;;;6.57;4.07;;;-0.90;99.90;;;;;;5001585;28;21051;-64
2021/12/26 09:39:55;;;;;;;3.90;3.00;;;-0.90;99.90;;;;;;5013962;28;20446;-63
2021/12/26 09:42:24;;;;;;;9.10;4.40;;;-0.90;1.00;;;;;;5014230;28;20503;-64
2021/12/26 09:44:52;;;;;;;6.70;4.23;;;-0.80;99.90;;;;;;5013976;28;20500;-64
2021/12/26 09:47:19;;;;;;;6.73;4.03;;;-0.70;99.90;;;;;;5014019;28;20987;-58
2021/12/26 09:49:46;;;;;;;7.70;4.60;;;-0.70;99.90;;;;;;5014396;28;20461;-61
2021/12/26 09:52:12;;;;;;;8.07;5.50;;;-0.70;99.90;;;;;;5013812;28;20929;-63
2021/12/26 09:54:39;;;;;;;7.60;4.43;;;-0.70;50.80;;;;;;5013731;28;20997;-59
2021/12/26 09:57:06;;;;;;;7.17;4.43;;;-0.70;1.00;;;;;;5013530;28;20442;-59
2021/12/26 09:59:33;;;;;;;6.50;4.70;;;-0.60;49.60;;;;;;5013566;28;21031;-61
2021/12/26 10:02:10;;;;;;;6.03;4.27;;;-0.60;99.90;;;;;;5014214;28;20558;-61
2021/12/26 10:04:38;;;;;;;9.60;4.77;;;-0.50;99.90;;;;;;5013209;28;20460;-65
2021/12/26 10:07:06;;;;;;;6.57;4.03;;;-0.50;99.90;;;;;;5013100;28;20500;-61
2021/12/26 10:09:36;;;;;;;7.00;4.63;;;-0.40;99.90;;;;;;5013592;28;20456;-55
2021/12/26 10:12:06;;;;;;;10.50;5.13;;;-0.40;99.90;;;;;;5013715;28;20472;-59
2021/12/26 10:14:34;;;;;;;7.60;5.03;;;-0.30;99.90;;;;;;5013179;28;20450;-57
2021/12/26 10:17:04;;;;;;;6.13;4.20;;;-0.30;99.90;;;;;;5012990;28;20864;-59
2021/12/26 10:19:34;;;;;;;5.57;3.93;;;-0.20;99.90;;;;;;5013148;28;20450;-57
2021/12/26 10:22:03;;;;;;;6.47;4.17;;;-0.20;1.00;;;;;;5013432;28;20457;-57
2021/12/26 10:24:32;;;;;;;9.47;6.40;;;-0.20;1.00;;;;;;5023030;28;20449;-64
2021/12/26 10:27:00;;;;;;;7.27;4.53;;;-0.10;1.00;;;;;;5032619;28;20453;-61
2021/12/26 10:29:32;;;;;;;7.07;4.60;;;0.00;99.90;;;;;;5036953;28;20449;-62
2021/12/26 10:32:07;;;;;;;5.40;4.13;;;0.10;99.90;;;;;;5033428;28;20453;-60
2021/12/26 10:34:39;;;;;;;3.97;3.20;;;0.10;55.20;;;;;;5031909;28;20447;-59
2021/12/26 10:37:08;;;;;;;7.10;4.70;;;0.10;1.00;;;;;;5031888;28;20495;-62
2021/12/26 10:39:39;;;;;;;6.17;5.13;;;0.10;88.10;;;;;;5032988;28;20516;-62
2021/12/26 10:42:08;;;;;;;8.37;5.20;;;0.00;99.90;;;;;;5034371;28;20436;-62
2021/12/26 10:44:39;;;;;;;6.53;4.20;;;0.00;99.90;;;;;;5032862;28;20457;-60
2021/12/26 10:47:09;;;;;;;9.57;4.90;;;-0.10;99.90;;;;;;5032053;28;20457;-61
2021/12/26 10:49:52;;;;;;;5.73;4.83;;;-0.10;99.90;;;;;;5031887;28;20500;-62
2021/12/26 10:52:22;;;;;;;7.83;5.07;;;-0.10;1.00;;;;;;5031656;28;20456;-61
2021/12/26 10:54:59;;;;;;;8.07;5.90;;;-0.10;99.90;;;;;;5031056;28;20449;-57
2021/12/26 10:57:28;;;;;;;8.63;5.53;;;-0.10;1.00;;;;;;5031852;28;20503;-57
2021/12/26 11:00:01;;;;;;;8.57;5.83;;;-0.10;99.90;;;;;;5031611;28;20943;-58
2021/12/26 11:02:31;;;;;;;9.63;6.40;;;-0.10;99.90;;;;;;5031394;28;20449;-60
2021/12/26 11:05:03;;;;;;;9.07;6.07;;;-0.10;1.00;;;;;;5031733;28;20453;-61
2021/12/26 11:07:40;;;;;;;9.93;6.37;;;0.00;1.00;;;;;;5031339;28;20512;-59
2021/12/26 11:10:11;;;;;;;7.97;5.43;;;0.00;1.00;;;;;;5032016;28;20434;-61
2021/12/26 11:12:41;;;;;;;6.97;5.23;;;0.10;1.00;;;;;;5031433;28;20452;-61
2021/12/26 11:15:09;;;;;;;7.60;5.13;;;0.10;1.00;;;;;;5031461;28;20485;-61
2021/12/26 11:17:39;;;;;;;6.80;5.63;;;0.10;1.00;;;;;;5030677;28;20478;-61
2021/12/26 11:20:09;;;;;;;8.17;5.57;;;0.20;1.00;;;;;;5031117;28;20461;-62
2021/12/26 11:22:36;;;;;;;7.23;5.73;;;0.30;1.00;;;;;;5031244;28;20558;-59
2021/12/26 11:25:03;;;;;;;7.63;5.20;;;0.40;1.00;;;;;;5014168;28;20473;-60
2021/12/26 11:27:29;;;;;;;7.40;5.13;;;0.40;1.00;;;;;;5011356;28;20471;-60
2021/12/26 11:29:56;;;;;;;10.00;5.77;;;0.40;1.00;;;;;;5011723;28;20450;-61
2021/12/26 11:32:26;;;;;;;11.23;6.13;;;0.40;1.00;;;;;;5011460;28;20439;-60
2021/12/26 11:34:54;;;;;;;8.57;6.13;;;0.50;1.00;;;;;;5011124;28;20828;-59
2021/12/26 11:37:24;;;;;;;7.60;5.80;;;0.50;95.50;;;;;;5010719;28;20468;-61
2021/12/26 11:39:52;;;;;;;10.93;6.60;;;0.50;81.20;;;;;;5011188;28;20910;-60
2021/12/26 11:42:45;;;;;;;6.77;4.70;;;0.60;99.90;;;;;;5010694;28;20945;-61
2021/12/26 11:45:20;;;;;;;9.37;6.63;;;0.70;99.90;;;;;;5011583;28;20428;-59
2021/12/26 11:48:22;;;;;;;10.37;5.73;;;0.70;99.90;;;;;;5011806;28;20819;-59
2021/12/26 11:51:02;;;;;;;11.10;6.03;;;0.70;99.90;;;;;;5010799;28;20819;-57
2021/12/26 11:53:55;;;;;;;12.30;7.17;;;0.80;99.90;;;;;;5010539;28;20455;-63
2021/12/26 11:56:35;;;;;;;11.17;6.37;;;0.80;99.90;;;;;;4998415;28;21010;-60
2021/12/26 11:59:20;;;;;;;10.07;6.30;;;0.90;99.90;;;;;;5011611;28;20467;-65
2021/12/26 12:01:49;;;;;;;8.50;6.23;;;1.10;99.90;;;;;;5010994;28;21122;-59
2021/12/26 12:04:18;;;;;;;9.40;6.20;;;1.10;99.90;;;;;;5011310;28;20437;-61
2021/12/26 12:06:47;;;;;;;7.93;6.03;;;1.20;99.90;;;;;;5010711;28;20428;-59
2021/12/26 12:09:30;;;;;;;10.50;5.97;;;1.20;99.90;;;;;;5011773;28;20475;-56
2021/12/26 12:12:03;;;;;;;10.03;6.70;;;1.20;99.90;;;;;;5011180;28;20985;-57
2021/12/26 12:14:54;;;;;;;9.97;5.70;;;1.30;99.90;;;;;;5011222;28;20857;-58
2021/12/26 12:17:23;;;;;;;10.57;7.03;;;1.40;99.90;;;;;;5010952;28;20540;-61
2021/12/26 12:20:14;;;;;;;9.27;6.40;;;1.30;1.00;;;;;;5011980;28;20491;-61
2021/12/26 12:23:13;;;;;;;12.63;6.77;;;1.40;1.00;;;;;;5014757;28;20491;-59
2021/12/26 12:25:52;;;;;;;11.67;7.17;;;1.50;1.00;;;;;;4996070;28;20871;-58
2021/12/26 12:28:25;;;;;;;9.57;6.60;;;1.60;1.00;;;;;;4995245;28;20469;-56
2021/12/26 12:30:54;;;;;;;11.00;7.13;;;1.50;1.00;;;;;;4994424;28;20868;-56
2021/12/26 12:33:25;;;;;;;9.47;6.83;;;1.50;1.00;;;;;;4995029;28;20446;-60
2021/12/26 12:36:02;;;;;;;12.00;6.80;;;1.60;99.90;;;;;;4994793;28;20482;-56
2021/12/26 12:38:34;;;;;;;10.07;6.37;;;1.60;1.00;;;;;;4995444;28;20477;-55
2021/12/26 12:41:07;;;;;;;11.27;6.57;;;1.50;99.90;;;;;;4994980;28;20537;-54
2021/12/26 12:43:43;;;;;;;9.50;6.70;;;1.60;1.00;;;;;;4995044;28;20454;-55
2021/12/26 12:46:11;;;;;;;9.83;6.83;;;1.50;99.90;;;;;;4994105;28;20469;-58
2021/12/26 12:48:45;;;;;;;9.73;7.20;;;1.60;99.90;;;;;;4995245;28;20569;-60
2021/12/26 12:51:37;;;;;;;9.93;6.67;;;1.60;99.90;;;;;;4995719;28;20442;-59
2021/12/26 12:54:07;;;;;;;10.33;6.77;;;1.60;1.00;;;;;;4995439;28;20446;-58
2021/12/26 12:56:44;;;;;;;9.23;6.87;;;1.70;13.40;;;;;;4994286;28;20493;-58
2021/12/26 12:59:45;;;;;;;9.63;6.33;;;1.80;1.00;;;;;;4994532;28;20999;-55
2021/12/26 13:02:26;;;;;;;12.07;6.97;;;1.80;99.90;;;;;;4994059;28;20452;-55
2021/12/26 13:04:54;;;;;;;11.53;7.27;;;1.80;1.00;;;;;;4994551;28;20449;-56